< < Back
Terminal Aerodrome Forecast


Current Version              Previous Versions:   1  2  3  4  5  6  7  8  9  

Terminal Aerodrome Forecast

547
FTUS42 KFFC 271941 AAA
TAFATL
TAF AMD
KATL 271941Z 2720/2824 17005KT P6SM VCSH BKN040
      TEMPO 2800/2803 VRB15G25KT 3SM -TSRA BKN025CB
     FM280400 17003KT P6SM BKN040
     FM280500 VRB03KT P6SM SCT020 BKN080
     FM281000 VRB03KT P6SM BKN015
     FM281400 16006KT P6SM BKN025 PROB30 2819/2822 3SM -TSRA
      BKN030CB=

Latest METAR

830
SAUS70 KWBC 280200 RRB
MTRATL
METAR KATL 280152Z 00000KT 10SM FEW100 SCT200 OVC250 25/18 A3020 RMK AO2
SLP219 T02500183


USA.gov is the U.S. government's official web portal to all federal, state and local government web resources and services.